sensor_id;sensor_type;location;lat;lon;timestamp;pressure;altitude;pressure_sealevel;temperature;humidity
26112;BME280;13829;48.990;8.346;2023-04-24T00:01:34;99379.13;;;12.17;100.00
26112;BME280;13829;48.990;8.346;2023-04-24T00:04:02;99377.41;;;12.13;100.00
26112;BME280;13829;48.990;8.346;2023-04-24T00:06:29;99380.72;;;12.24;100.00
26112;BME280;13829;48.990;8.346;2023-04-24T00:09:01;99369.09;;;12.35;100.00
26112;BME280;13829;48.990;8.346;2023-04-24T00:11:29;99372.47;;;12.43;100.00
26112;BME280;13829;48.990;8.346;2023-04-24T00:13:56;99374.09;;;12.49;100.00
26112;BME280;13829;48.990;8.346;2023-04-24T00:16:23;99370.63;;;12.48;100.00
26112;BME280;13829;48.990;8.346;2023-04-24T00:18:50;99353.59;;;12.65;100.00
26112;BME280;13829;48.990;8.346;2023-04-24T00:21:18;99367.53;;;12.70;100.00
26112;BME280;13829;48.990;8.346;2023-04-24T00:23:46;99367.53;;;12.70;100.00
26112;BME280;13829;48.990;8.346;2023-04-24T00:26:14;99362.28;;;12.70;100.00
26112;BME280;13829;48.990;8.346;2023-04-24T00:28:41;99370.25;;;12.67;99.98
26112;BME280;13829;48.990;8.346;2023-04-24T00:31:08;99374.69;;;12.65;100.00
26112;BME280;13829;48.990;8.346;2023-04-24T00:33:35;99373.84;;;12.63;100.00
26112;BME280;13829;48.990;8.346;2023-04-24T00:36:03;99376.50;;;12.61;100.00
26112;BME280;13829;48.990;8.346;2023-04-24T00:38:30;99381.00;;;12.56;100.00
26112;BME280;13829;48.990;8.346;2023-04-24T00:40:57;99379.25;;;12.55;100.00
26112;BME280;13829;48.990;8.346;2023-04-24T00:43:25;99380.91;;;12.62;100.00
26112;BME280;13829;48.990;8.346;2023-04-24T00:45:52;99380.13;;;12.57;100.00
26112;BME280;13829;48.990;8.346;2023-04-24T00:48:21;99380.97;;;12.57;100.00
26112;BME280;13829;48.990;8.346;2023-04-24T00:50:48;99382.47;;;12.71;100.00
26112;BME280;13829;48.990;8.346;2023-04-24T00:53:14;99373.94;;;12.58;100.00
26112;BME280;13829;48.990;8.346;2023-04-24T00:55:42;99369.41;;;12.65;100.00
26112;BME280;13829;48.990;8.346;2023-04-24T00:58:09;99370.97;;;12.75;100.00
26112;BME280;13829;48.990;8.346;2023-04-24T01:00:38;99374.47;;;12.76;100.00
26112;BME280;13829;48.990;8.346;2023-04-24T01:03:05;99374.75;;;12.62;100.00
26112;BME280;13829;48.990;8.346;2023-04-24T01:05:33;99370.44;;;12.57;100.00
26112;BME280;13829;48.990;8.346;2023-04-24T01:08:02;99372.31;;;12.51;100.00
26112;BME280;13829;48.990;8.346;2023-04-24T01:10:31;99373.44;;;12.39;100.00
26112;BME280;13829;48.990;8.346;2023-04-24T01:12:59;99368.97;;;12.43;100.00
26112;BME280;13829;48.990;8.346;2023-04-24T01:15:26;99367.34;;;12.35;100.00
26112;BME280;13829;48.990;8.346;2023-04-24T01:17:54;99367.50;;;12.28;100.00
26112;BME280;13829;48.990;8.346;2023-04-24T01:20:22;99362.38;;;12.18;100.00
26112;BME280;13829;48.990;8.346;2023-04-24T01:22:52;99362.00;;;12.38;100.00
26112;BME280;13829;48.990;8.346;2023-04-24T01:25:19;99371.75;;;12.35;100.00
26112;BME280;13829;48.990;8.346;2023-04-24T01:27:46;99369.09;;;12.35;100.00
26112;BME280;13829;48.990;8.346;2023-04-24T01:30:14;99361.69;;;12.55;100.00
26112;BME280;13829;48.990;8.346;2023-04-24T01:32:42;99361.84;;;12.48;100.00
26112;BME280;13829;48.990;8.346;2023-04-24T01:35:11;99359.22;;;12.48;100.00
26112;BME280;13829;48.990;8.346;2023-04-24T01:37:38;99360.84;;;12.53;100.00
26112;BME280;13829;48.990;8.346;2023-04-24T01:40:07;99366.66;;;12.71;100.00
26112;BME280;13829;48.990;8.346;2023-04-24T01:42:35;99360.47;;;12.72;100.00
26112;BME280;13829;48.990;8.346;2023-04-24T01:45:04;99358.75;;;12.71;100.00
26112;BME280;13829;48.990;8.346;2023-04-24T01:47:32;99354.47;;;12.64;100.00
26112;BME280;13829;48.990;8.346;2023-04-24T01:49:59;99362.69;;;12.48;100.00
26112;BME280;13829;48.990;8.346;2023-04-24T01:52:26;99360.97;;;12.47;100.00
26112;BME280;13829;48.990;8.346;2023-04-24T01:54:54;99353.25;;;12.38;100.00
26112;BME280;13829;48.990;8.346;2023-04-24T01:57:23;99353.25;;;12.38;100.00
26112;BME280;13829;48.990;8.346;2023-04-24T01:59:51;99338.34;;;12.35;100.00
26112;BME280;13829;48.990;8.346;2023-04-24T02:02:18;99349.88;;;12.31;100.00
26112;BME280;13829;48.990;8.346;2023-04-24T02:04:46;99334.97;;;12.29;100.00
26112;BME280;13829;48.990;8.346;2023-04-24T02:07:13;99340.41;;;12.19;100.00
26112;BME280;13829;48.990;8.346;2023-04-24T02:09:40;99334.25;;;12.20;100.00
26112;BME280;13829;48.990;8.346;2023-04-24T02:12:07;99339.56;;;12.17;100.00
26112;BME280;13829;48.990;8.346;2023-04-24T02:14:36;99342.53;;;11.99;100.00
26112;BME280;13829;48.990;8.346;2023-04-24T02:17:03;99349.56;;;12.00;100.00
26112;BME280;13829;48.990;8.346;2023-04-24T02:19:30;99349.59;;;11.97;100.00
26112;BME280;13829;48.990;8.346;2023-04-24T02:21:57;99350.50;;;11.93;100.00
26112;BME280;13829;48.990;8.346;2023-04-24T02:24:24;99344.09;;;12.09;100.00
26112;BME280;13829;48.990;8.346;2023-04-24T02:26:51;99341.41;;;12.12;100.00
26112;BME280;13829;48.990;8.346;2023-04-24T02:29:18;99347.34;;;12.23;100.00
26112;BME280;13829;48.990;8.346;2023-04-24T02:31:46;99345.66;;;12.19;100.00
26112;BME280;13829;48.990;8.346;2023-04-24T02:34:13;99351.69;;;12.26;100.00
26112;BME280;13829;48.990;8.346;2023-04-24T02:36:41;99347.22;;;12.30;100.00
26112;BME280;13829;48.990;8.346;2023-04-24T02:39:08;99362.81;;;12.42;100.00
26112;BME280;13829;48.990;8.346;2023-04-24T02:41:35;99365.50;;;12.40;100.00
26112;BME280;13829;48.990;8.346;2023-04-24T02:44:02;99367.28;;;12.38;100.00
26112;BME280;13829;48.990;8.346;2023-04-24T02:46:29;99367.16;;;12.45;100.00
26112;BME280;13829;48.990;8.346;2023-04-24T02:48:58;99380.19;;;12.52;100.00
26112;BME280;13829;48.990;8.346;2023-04-24T02:51:25;99385.66;;;12.43;100.00
26112;BME280;13829;48.990;8.346;2023-04-24T02:53:52;99396.34;;;12.35;100.00
26112;BME280;13829;48.990;8.346;2023-04-24T02:56:19;99389.38;;;12.33;100.00
26112;BME280;13829;48.990;8.346;2023-04-24T02:58:46;99399.28;;;12.18;100.00
26112;BME280;13829;48.990;8.346;2023-04-24T03:01:13;99399.59;;;12.01;100.00
26112;BME280;13829;48.990;8.346;2023-04-24T03:03:40;99395.47;;;11.83;100.00
26112;BME280;13829;48.990;8.346;2023-04-24T03:06:08;99405.16;;;11.81;100.00
26112;BME280;13829;48.990;8.346;2023-04-24T03:08:35;99402.53;;;11.81;100.00
26112;BME280;13829;48.990;8.346;2023-04-24T03:11:03;99405.22;;;11.77;100.00
26112;BME280;13829;48.990;8.346;2023-04-24T03:13:30;99410.69;;;11.64;100.00
26112;BME280;13829;48.990;8.346;2023-04-24T03:15:57;99405.38;;;11.67;100.00
26112;BME280;13829;48.990;8.346;2023-04-24T03:18:24;99410.72;;;11.61;100.00
26112;BME280;13829;48.990;8.346;2023-04-24T03:20:51;99413.53;;;11.50;100.00
26112;BME280;13829;48.990;8.346;2023-04-24T03:23:19;99417.00;;;11.52;100.00
26112;BME280;13829;48.990;8.346;2023-04-24T03:25:46;99417.97;;;11.47;100.00
26112;BME280;13829;48.990;8.346;2023-04-24T03:28:14;99422.09;;;11.65;100.00
26112;BME280;13829;48.990;8.346;2023-04-24T03:30:41;99436.94;;;11.69;100.00
26112;BME280;13829;48.990;8.346;2023-04-24T03:33:08;99446.78;;;11.57;100.00
26112;BME280;13829;48.990;8.346;2023-04-24T03:35:35;99452.84;;;11.64;100.00
26112;BME280;13829;48.990;8.346;2023-04-24T03:38:02;99452.88;;;11.61;100.00
26112;BME280;13829;48.990;8.346;2023-04-24T03:40:31;99439.56;;;11.72;100.00
26112;BME280;13829;48.990;8.346;2023-04-24T03:42:59;99450.19;;;11.66;100.00
26112;BME280;13829;48.990;8.346;2023-04-24T03:45:26;99450.19;;;11.66;100.00
26112;BME280;13829;48.990;8.346;2023-04-24T03:47:53;99452.53;;;11.83;100.00
26112;BME280;13829;48.990;8.346;2023-04-24T03:50:20;99453.59;;;11.71;100.00
26112;BME280;13829;48.990;8.346;2023-04-24T03:52:47;99455.28;;;11.75;100.00
26112;BME280;13829;48.990;8.346;2023-04-24T03:55:14;99458.19;;;11.58;100.00
26112;BME280;13829;48.990;8.346;2023-04-24T03:57:42;99472.47;;;11.38;100.00
26112;BME280;13829;48.990;8.346;2023-04-24T04:00:11;99477.66;;;11.45;100.00
26112;BME280;13829;48.990;8.346;2023-04-24T04:02:38;99480.47;;;11.34;100.00
26112;BME280;13829;48.990;8.346;2023-04-24T04:05:05;99482.22;;;11.32;100.00
26112;BME280;13829;48.990;8.346;2023-04-24T04:07:33;99484.69;;;11.46;100.00
26112;BME280;13829;48.990;8.346;2023-04-24T04:10:00;99489.31;;;11.26;100.00
26112;BME280;13829;48.990;8.346;2023-04-24T04:12:27;99488.47;;;11.24;100.00
26112;BME280;13829;48.990;8.346;2023-04-24T04:14:56;99500.97;;;11.05;100.00
26112;BME280;13829;48.990;8.346;2023-04-24T04:17:23;99501.91;;;11.01;100.00
26112;BME280;13829;48.990;8.346;2023-04-24T04:19:50;99505.44;;;10.96;100.00
26112;BME280;13829;48.990;8.346;2023-04-24T04:22:16;99498.44;;;10.98;100.00
26112;BME280;13829;48.990;8.346;2023-04-24T04:24:43;99511.72;;;10.84;100.00
26112;BME280;13829;48.990;8.346;2023-04-24T04:27:11;99511.78;;;10.81;100.00
26112;BME280;13829;48.990;8.346;2023-04-24T04:29:38;99512.75;;;10.72;100.00
26112;BME280;13829;48.990;8.346;2023-04-24T04:32:07;99518.97;;;10.60;100.00
26112;BME280;13829;48.990;8.346;2023-04-24T04:34:33;99520.78;;;10.55;100.00
26112;BME280;13829;48.990;8.346;2023-04-24T04:37:03;99523.38;;;10.59;100.00
26112;BME280;13829;48.990;8.346;2023-04-24T04:39:30;99528.69;;;10.53;100.00
26112;BME280;13829;48.990;8.346;2023-04-24T04:41:57;99529.47;;;10.63;100.00
26112;BME280;13829;48.990;8.346;2023-04-24T04:44:24;99538.22;;;10.64;100.00
26112;BME280;13829;48.990;8.346;2023-04-24T04:46:51;99536.38;;;10.75;100.00
26112;BME280;13829;48.990;8.346;2023-04-24T04:49:23;99539.00;;;10.73;100.00
26112;BME280;13829;48.990;8.346;2023-04-24T04:51:50;99540.75;;;10.76;100.00
26112;BME280;13829;48.990;8.346;2023-04-24T04:54:17;99541.69;;;10.67;100.00
26112;BME280;13829;48.990;8.346;2023-04-24T04:56:44;99548.72;;;10.68;100.00
26112;BME280;13829;48.990;8.346;2023-04-24T04:59:11;99554.88;;;10.66;100.00
26112;BME280;13829;48.990;8.346;2023-04-24T05:01:38;99565.28;;;10.78;100.00
26112;BME280;13829;48.990;8.346;2023-04-24T05:04:05;99555.63;;;10.77;100.00
26112;BME280;13829;48.990;8.346;2023-04-24T05:06:34;99559.00;;;10.91;100.00
26112;BME280;13829;48.990;8.346;2023-04-24T05:09:01;99566.00;;;10.92;100.00
26112;BME280;13829;48.990;8.346;2023-04-24T05:11:29;99572.06;;;11.01;100.00
26112;BME280;13829;48.990;8.346;2023-04-24T05:13:56;99563.16;;;11.13;100.00
26112;BME280;13829;48.990;8.346;2023-04-24T05:16:23;99559.41;;;11.35;100.00
26112;BME280;13829;48.990;8.346;2023-04-24T05:18:50;99562.63;;;11.57;100.00
26112;BME280;13829;48.990;8.346;2023-04-24T05:21:17;99569.56;;;11.65;100.00
26112;BME280;13829;48.990;8.346;2023-04-24T05:23:45;99573.00;;;11.71;100.00
26112;BME280;13829;48.990;8.346;2023-04-24T05:26:13;99587.13;;;11.66;100.00
26112;BME280;13829;48.990;8.346;2023-04-24T05:28:41;99588.00;;;11.65;100.00
26112;BME280;13829;48.990;8.346;2023-04-24T05:31:08;99581.78;;;11.72;100.00
26112;BME280;13829;48.990;8.346;2023-04-24T05:33:34;99578.25;;;11.71;100.00
26112;BME280;13829;48.990;8.346;2023-04-24T05:36:01;99588.81;;;11.73;100.00
26112;BME280;13829;48.990;8.346;2023-04-24T05:38:28;99585.03;;;11.91;100.00
26112;BME280;13829;48.990;8.346;2023-04-24T05:40:57;99596.59;;;11.81;100.00
26112;BME280;13829;48.990;8.346;2023-04-24T05:43:23;99602.53;;;11.97;100.00
26112;BME280;13829;48.990;8.346;2023-04-24T05:45:50;99601.75;;;11.88;100.00
26112;BME280;13829;48.990;8.346;2023-04-24T05:48:19;99600.81;;;11.93;100.00
26112;BME280;13829;48.990;8.346;2023-04-24T05:50:47;99605.56;;;11.66;100.00
26112;BME280;13829;48.990;8.346;2023-04-24T05:53:14;99599.22;;;11.79;100.00
26112;BME280;13829;48.990;8.346;2023-04-24T05:55:41;99614.03;;;11.91;100.00
26112;BME280;13829;48.990;8.346;2023-04-24T05:58:12;99614.81;;;11.99;97.06
26112;BME280;13829;48.990;8.346;2023-04-24T06:00:40;99624.47;;;12.00;97.69
26112;BME280;13829;48.990;8.346;2023-04-24T06:03:08;99624.59;;;11.89;98.53
26112;BME280;13829;48.990;8.346;2023-04-24T06:05:35;99629.03;;;11.86;98.99
26112;BME280;13829;48.990;8.346;2023-04-24T06:08:02;99631.50;;;11.98;99.36
26112;BME280;13829;48.990;8.346;2023-04-24T06:10:29;99630.50;;;12.07;98.28
26112;BME280;13829;48.990;8.346;2023-04-24T06:12:56;99632.31;;;12.05;99.36
26112;BME280;13829;48.990;8.346;2023-04-24T06:15:28;99641.19;;;11.98;99.59
26112;BME280;13829;48.990;8.346;2023-04-24T06:17:56;99632.44;;;11.97;98.39
26112;BME280;13829;48.990;8.346;2023-04-24T06:20:24;99636.69;;;12.06;98.92
26112;BME280;13829;48.990;8.346;2023-04-24T06:22:51;99640.13;;;12.13;98.67
26112;BME280;13829;48.990;8.346;2023-04-24T06:25:18;99640.91;;;12.19;97.75
26112;BME280;13829;48.990;8.346;2023-04-24T06:27:45;99636.53;;;12.17;96.61
26112;BME280;13829;48.990;8.346;2023-04-24T06:30:12;99642.91;;;12.00;93.88
26112;BME280;13829;48.990;8.346;2023-04-24T06:32:41;99643.69;;;12.07;95.63
26112;BME280;13829;48.990;8.346;2023-04-24T06:35:08;99647.09;;;12.15;93.96
26112;BME280;13829;48.990;8.346;2023-04-24T06:37:37;99653.16;;;12.22;94.19
26112;BME280;13829;48.990;8.346;2023-04-24T06:40:05;99656.28;;;12.50;95.14
26112;BME280;13829;48.990;8.346;2023-04-24T06:42:33;99659.72;;;12.55;91.80
26112;BME280;13829;48.990;8.346;2023-04-24T06:45:00;99654.16;;;12.72;90.51
26112;BME280;13829;48.990;8.346;2023-04-24T06:47:27;99653.09;;;12.86;89.44
26112;BME280;13829;48.990;8.346;2023-04-24T06:49:56;99660.41;;;13.70;84.19
26112;BME280;13829;48.990;8.346;2023-04-24T06:52:23;99667.97;;;13.89;79.56
26112;BME280;13829;48.990;8.346;2023-04-24T06:54:50;99664.28;;;13.96;79.61
26112;BME280;13829;48.990;8.346;2023-04-24T06:57:18;99660.81;;;13.94;77.41
26112;BME280;13829;48.990;8.346;2023-04-24T06:59:45;99657.50;;;13.82;79.38
26112;BME280;13829;48.990;8.346;2023-04-24T07:02:12;99654.81;;;14.28;76.72
26112;BME280;13829;48.990;8.346;2023-04-24T07:04:39;99655.78;;;14.99;71.17
26112;BME280;13829;48.990;8.346;2023-04-24T07:07:08;99662.66;;;16.05;66.16
26112;BME280;13829;48.990;8.346;2023-04-24T07:09:38;99666.81;;;16.72;61.42
26112;BME280;13829;48.990;8.346;2023-04-24T07:12:08;99663.69;;;16.58;61.05
26112;BME280;13829;48.990;8.346;2023-04-24T07:14:36;99669.69;;;15.75;64.60
26112;BME280;13829;48.990;8.346;2023-04-24T07:17:03;99670.78;;;15.00;67.43
26112;BME280;13829;48.990;8.346;2023-04-24T07:19:31;99683.13;;;14.23;71.29
26112;BME280;13829;48.990;8.346;2023-04-24T07:21:58;99683.75;;;13.92;72.92
26112;BME280;13829;48.990;8.346;2023-04-24T07:24:26;99683.72;;;13.48;76.78
26112;BME280;13829;48.990;8.346;2023-04-24T07:26:54;99675.78;;;13.95;73.93
26112;BME280;13829;48.990;8.346;2023-04-24T07:29:22;99677.28;;;14.47;71.61
26112;BME280;13829;48.990;8.346;2023-04-24T07:31:49;99675.59;;;15.53;66.63
26112;BME280;13829;48.990;8.346;2023-04-24T07:34:17;99674.84;;;16.41;60.25
26112;BME280;13829;48.990;8.346;2023-04-24T07:36:44;99679.34;;;16.09;59.63
26112;BME280;13829;48.990;8.346;2023-04-24T07:39:11;99680.31;;;15.40;59.91
26112;BME280;13829;48.990;8.346;2023-04-24T07:41:39;99693.72;;;14.62;64.42
26112;BME280;13829;48.990;8.346;2023-04-24T07:44:06;99706.00;;;14.24;68.17
26112;BME280;13829;48.990;8.346;2023-04-24T07:46:33;99718.78;;;14.03;67.34
26112;BME280;13829;48.990;8.346;2023-04-24T07:49:00;99719.50;;;13.66;68.58
26112;BME280;13829;48.990;8.346;2023-04-24T07:51:27;99724.50;;;13.30;69.25
26112;BME280;13829;48.990;8.346;2023-04-24T07:53:54;99740.53;;;13.19;70.78
26112;BME280;13829;48.990;8.346;2023-04-24T07:56:21;99743.31;;;13.11;73.33
26112;BME280;13829;48.990;8.346;2023-04-24T07:58:50;99745.41;;;12.87;73.32
26112;BME280;13829;48.990;8.346;2023-04-24T08:01:17;99748.53;;;12.53;77.25
26112;BME280;13829;48.990;8.346;2023-04-24T08:03:44;99748.63;;;12.47;79.62
26112;BME280;13829;48.990;8.346;2023-04-24T08:06:11;99748.56;;;12.52;80.17
26112;BME280;13829;48.990;8.346;2023-04-24T08:08:38;99748.03;;;12.89;80.65
26112;BME280;13829;48.990;8.346;2023-04-24T08:11:05;99742.88;;;13.39;77.16
26112;BME280;13829;48.990;8.346;2023-04-24T08:13:32;99755.94;;;14.39;76.64
26112;BME280;13829;48.990;8.346;2023-04-24T08:16:00;99742.41;;;15.30;67.24
26112;BME280;13829;48.990;8.346;2023-04-24T08:18:27;99750.94;;;15.07;67.66
26112;BME280;13829;48.990;8.346;2023-04-24T08:20:54;99748.97;;;14.77;66.31
26112;BME280;13829;48.990;8.346;2023-04-24T08:23:21;99764.38;;;14.14;70.27
26112;BME280;13829;48.990;8.346;2023-04-24T08:25:49;99778.09;;;13.90;73.89
26112;BME280;13829;48.990;8.346;2023-04-24T08:28:16;99782.22;;;13.54;76.94
26112;BME280;13829;48.990;8.346;2023-04-24T08:30:46;99787.41;;;13.03;79.51
26112;BME280;13829;48.990;8.346;2023-04-24T08:33:14;99801.94;;;12.71;83.55
26112;BME280;13829;48.990;8.346;2023-04-24T08:35:41;99786.41;;;12.49;88.13
26112;BME280;13829;48.990;8.346;2023-04-24T08:38:08;99793.34;;;12.56;89.20
26112;BME280;13829;48.990;8.346;2023-04-24T08:40:37;99786.97;;;12.71;86.98
26112;BME280;13829;48.990;8.346;2023-04-24T08:43:05;99787.47;;;13.00;85.51
26112;BME280;13829;48.990;8.346;2023-04-24T08:45:33;99788.50;;;12.88;83.26
26112;BME280;13829;48.990;8.346;2023-04-24T08:48:00;99785.28;;;13.27;86.45
26112;BME280;13829;48.990;8.346;2023-04-24T08:50:29;99780.31;;;14.11;84.95
26112;BME280;13829;48.990;8.346;2023-04-24T08:52:57;99793.97;;;14.77;80.60
26112;BME280;13829;48.990;8.346;2023-04-24T08:55:24;99788.53;;;15.23;73.50
26112;BME280;13829;48.990;8.346;2023-04-24T08:57:53;99785.59;;;15.68;70.92
26112;BME280;13829;48.990;8.346;2023-04-24T09:00:21;99785.25;;;15.84;68.41
26112;BME280;13829;48.990;8.346;2023-04-24T09:02:49;99803.34;;;15.66;67.60
26112;BME280;13829;48.990;8.346;2023-04-24T09:05:17;99816.16;;;15.48;64.77
26112;BME280;13829;48.990;8.346;2023-04-24T09:07:53;99814.34;;;15.13;66.09
26112;BME280;13829;48.990;8.346;2023-04-24T09:10:22;99817.84;;;14.74;63.55
26112;BME280;13829;48.990;8.346;2023-04-24T09:12:51;99817.03;;;14.27;65.53
26112;BME280;13829;48.990;8.346;2023-04-24T09:15:19;99815.50;;;14.13;65.79
26112;BME280;13829;48.990;8.346;2023-04-24T09:17:47;99816.56;;;14.06;67.31
26112;BME280;13829;48.990;8.346;2023-04-24T09:20:14;99812.03;;;14.11;64.94
26112;BME280;13829;48.990;8.346;2023-04-24T09:22:42;99826.50;;;13.92;65.34
26112;BME280;13829;48.990;8.346;2023-04-24T09:25:11;99831.56;;;14.04;64.27
26112;BME280;13829;48.990;8.346;2023-04-24T09:27:44;99827.53;;;13.83;65.42
26112;BME280;13829;48.990;8.346;2023-04-24T09:30:13;99823.91;;;13.89;65.72
26112;BME280;13829;48.990;8.346;2023-04-24T09:32:40;99822.94;;;13.93;67.11
26112;BME280;13829;48.990;8.346;2023-04-24T09:35:10;99831.88;;;13.85;63.35
26112;BME280;13829;48.990;8.346;2023-04-24T09:37:40;99847.75;;;13.85;63.02
26112;BME280;13829;48.990;8.346;2023-04-24T09:40:12;99839.03;;;13.80;61.05
26112;BME280;13829;48.990;8.346;2023-04-24T09:42:39;99834.81;;;13.70;63.51
26112;BME280;13829;48.990;8.346;2023-04-24T09:45:10;99829.38;;;13.78;64.64
26112;BME280;13829;48.990;8.346;2023-04-24T09:47:38;99838.88;;;13.90;63.22
26112;BME280;13829;48.990;8.346;2023-04-24T09:50:16;99850.41;;;13.84;63.52
26112;BME280;13829;48.990;8.346;2023-04-24T09:52:44;99839.75;;;13.90;64.38
26112;BME280;13829;48.990;8.346;2023-04-24T09:55:19;99839.34;;;14.12;64.37
26112;BME280;13829;48.990;8.346;2023-04-24T09:58:02;99839.97;;;14.25;65.06
26112;BME280;13829;48.990;8.346;2023-04-24T10:00:36;99841.63;;;14.32;64.07
26112;BME280;13829;48.990;8.346;2023-04-24T10:03:17;99838.78;;;14.43;66.06
26112;BME280;13829;48.990;8.346;2023-04-24T10:05:53;99849.69;;;14.71;62.91
26112;BME280;13829;48.990;8.346;2023-04-24T10:08:22;99855.50;;;14.89;64.03
26112;BME280;13829;48.990;8.346;2023-04-24T10:10:52;99844.38;;;15.12;62.40
26112;BME280;13829;48.990;8.346;2023-04-24T10:13:22;99851.31;;;14.78;60.88
26112;BME280;13829;48.990;8.346;2023-04-24T10:15:51;99849.47;;;14.80;63.40
26112;BME280;13829;48.990;8.346;2023-04-24T10:18:20;99856.19;;;14.53;63.35
26112;BME280;13829;48.990;8.346;2023-04-24T10:20:48;99867.28;;;14.27;62.95
26112;BME280;13829;48.990;8.346;2023-04-24T10:23:16;99864.97;;;14.08;62.51
26112;BME280;13829;48.990;8.346;2023-04-24T10:25:45;99877.97;;;13.69;65.08
26112;BME280;13829;48.990;8.346;2023-04-24T10:28:14;99883.63;;;13.46;65.64
26112;BME280;13829;48.990;8.346;2023-04-24T10:30:43;99890.78;;;13.39;66.73
26112;BME280;13829;48.990;8.346;2023-04-24T10:33:10;99894.31;;;13.38;67.40
26112;BME280;13829;48.990;8.346;2023-04-24T10:35:44;99897.88;;;13.34;67.51
26112;BME280;13829;48.990;8.346;2023-04-24T10:38:17;99896.19;;;13.27;66.38
26112;BME280;13829;48.990;8.346;2023-04-24T10:40:45;99896.44;;;13.11;67.87
26112;BME280;13829;48.990;8.346;2023-04-24T10:43:17;99894.81;;;13.01;68.13
26112;BME280;13829;48.990;8.346;2023-04-24T10:46:01;99904.50;;;12.99;67.75
26112;BME280;13829;48.990;8.346;2023-04-24T10:48:28;99898.25;;;13.06;68.77
26112;BME280;13829;48.990;8.346;2023-04-24T10:50:56;99892.78;;;13.20;67.79
26112;BME280;13829;48.990;8.346;2023-04-24T10:53:28;99899.03;;;13.13;68.00
26112;BME280;13829;48.990;8.346;2023-04-24T10:56:02;99899.28;;;12.94;71.25
26112;BME280;13829;48.990;8.346;2023-04-24T10:58:39;99901.88;;;12.96;73.65
26112;BME280;13829;48.990;8.346;2023-04-24T11:01:06;99908.00;;;13.01;76.47
26112;BME280;13829;48.990;8.346;2023-04-24T11:03:35;99908.94;;;12.95;72.36
26112;BME280;13829;48.990;8.346;2023-04-24T11:06:04;99913.34;;;12.93;73.37
26112;BME280;13829;48.990;8.346;2023-04-24T11:08:37;99909.97;;;12.85;75.44
26112;BME280;13829;48.990;8.346;2023-04-24T11:11:11;99912.56;;;12.86;78.17
26112;BME280;13829;48.990;8.346;2023-04-24T11:14:10;99911.41;;;13.09;74.62
26112;BME280;13829;48.990;8.346;2023-04-24T11:16:45;99919.88;;;13.33;72.62
26112;BME280;13829;48.990;8.346;2023-04-24T11:19:21;99925.78;;;13.53;71.26
26112;BME280;13829;48.990;8.346;2023-04-24T11:21:57;99923.34;;;13.40;70.06
26112;BME280;13829;48.990;8.346;2023-04-24T11:24:28;99921.38;;;13.52;70.88
26112;BME280;13829;48.990;8.346;2023-04-24T11:26:58;99923.38;;;13.36;73.38
26112;BME280;13829;48.990;8.346;2023-04-24T11:29:48;99920.41;;;13.60;77.09
26112;BME280;13829;48.990;8.346;2023-04-24T11:32:18;99923.75;;;13.71;74.07
26112;BME280;13829;48.990;8.346;2023-04-24T11:34:50;99927.25;;;13.72;73.00
26112;BME280;13829;48.990;8.346;2023-04-24T11:37:18;99945.91;;;13.62;72.62
26112;BME280;13829;48.990;8.346;2023-04-24T11:39:45;99944.31;;;13.49;72.66
26112;BME280;13829;48.990;8.346;2023-04-24T11:42:15;99936.69;;;13.29;79.56
26112;BME280;13829;48.990;8.346;2023-04-24T11:44:42;99943.09;;;13.08;83.54
26112;BME280;13829;48.990;8.346;2023-04-24T11:47:11;99942.22;;;13.07;88.32
26112;BME280;13829;48.990;8.346;2023-04-24T11:49:38;99944.72;;;13.18;86.66
26112;BME280;13829;48.990;8.346;2023-04-24T11:52:05;99947.31;;;13.23;88.22
26112;BME280;13829;48.990;8.346;2023-04-24T11:54:32;99941.91;;;13.32;86.57
26112;BME280;13829;48.990;8.346;2023-04-24T11:57:04;99945.50;;;13.28;85.12
26112;BME280;13829;48.990;8.346;2023-04-24T11:59:36;99938.41;;;13.30;87.45
26112;BME280;13829;48.990;8.346;2023-04-24T12:02:03;99946.41;;;13.24;86.69
26112;BME280;13829;48.990;8.346;2023-04-24T12:04:40;99949.03;;;13.24;87.13
26112;BME280;13829;48.990;8.346;2023-04-24T12:07:07;99940.09;;;13.37;88.69
26112;BME280;13829;48.990;8.346;2023-04-24T12:09:43;99934.69;;;13.46;86.02
26112;BME280;13829;48.990;8.346;2023-04-24T12:12:12;99938.03;;;13.59;87.66
26112;BME280;13829;48.990;8.346;2023-04-24T12:14:51;99949.31;;;13.69;80.02
26112;BME280;13829;48.990;8.346;2023-04-24T12:17:25;99949.25;;;13.74;80.63
26112;BME280;13829;48.990;8.346;2023-04-24T12:19:58;99948.16;;;13.89;78.73
26112;BME280;13829;48.990;8.346;2023-04-24T12:22:27;99944.84;;;13.74;74.56
26112;BME280;13829;48.990;8.346;2023-04-24T12:25:02;99944.63;;;13.90;79.42
26112;BME280;13829;48.990;8.346;2023-04-24T12:27:31;99945.34;;;13.98;74.22
26112;BME280;13829;48.990;8.346;2023-04-24T12:30:00;99947.78;;;14.10;74.44
26112;BME280;13829;48.990;8.346;2023-04-24T12:32:27;99943.13;;;14.25;74.07
26112;BME280;13829;48.990;8.346;2023-04-24T12:34:57;99940.97;;;14.47;75.66
26112;BME280;13829;48.990;8.346;2023-04-24T12:37:25;99934.41;;;14.68;72.08
26112;BME280;13829;48.990;8.346;2023-04-24T12:40:01;99935.09;;;14.79;72.76
26112;BME280;13829;48.990;8.346;2023-04-24T12:42:29;99928.56;;;14.97;68.59
26112;BME280;13829;48.990;8.346;2023-04-24T12:44:58;99930.56;;;14.84;66.95
26112;BME280;13829;48.990;8.346;2023-04-24T12:47:27;99926.91;;;14.92;68.14
26112;BME280;13829;48.990;8.346;2023-04-24T12:49:55;99930.88;;;15.13;67.77
26112;BME280;13829;48.990;8.346;2023-04-24T12:52:22;99936.91;;;15.20;68.34
26112;BME280;13829;48.990;8.346;2023-04-24T12:54:53;99938.28;;;15.39;63.83
26112;BME280;13829;48.990;8.346;2023-04-24T12:57:20;99936.56;;;15.35;62.43
26112;BME280;13829;48.990;8.346;2023-04-24T12:59:47;99934.81;;;14.93;60.97
26112;BME280;13829;48.990;8.346;2023-04-24T13:02:14;99938.00;;;14.64;61.41